Time,TemperatureF,DewpointF,PressureIn,WindDirection,WindDirectionDegrees,WindSpeedMPH,WindSpeedGustMPH,Humidity,HourlyPrecipIn,Conditions,Clouds,dailyrainin,SoftwareType,DateUTC
2017-05-25 00:10:00,58.6,58.0,29.45,ESE,122,2.0,10.0,96,0.00,,,0.00,weatherlink.com 1.10,2017-05-25 04:10:00,
2017-05-25 00:25:00,58.6,58.0,29.44,ESE,117,2.0,10.0,96,0.01,,,0.01,weatherlink.com 1.10,2017-05-25 04:25:00,
2017-05-25 00:40:00,58.5,57.0,29.44,ESE,107,2.0,9.0,96,0.03,,,0.03,weatherlink.com 1.10,2017-05-25 04:40:00,
2017-05-25 00:55:00,58.5,57.0,29.44,ENE,68,4.0,12.0,96,0.05,,,0.05,weatherlink.com 1.10,2017-05-25 04:55:00,
2017-05-25 01:10:00,58.4,57.0,29.43,ESE,115,7.0,13.0,95,0.05,,,0.05,weatherlink.com 1.10,2017-05-25 05:10:00,
2017-05-25 01:26:00,58.3,57.0,29.44,SE,133,4.0,11.0,96,0.07,,,0.08,weatherlink.com 1.10,2017-05-25 05:26:00,
2017-05-25 01:41:00,58.2,57.0,29.43,ESE,109,1.0,9.0,96,0.05,,,0.09,weatherlink.com 1.10,2017-05-25 05:41:00,
2017-05-25 01:56:00,58.2,57.0,29.43,ESE,119,4.0,9.0,96,0.05,,,0.10,weatherlink.com 1.10,2017-05-25 05:56:00,
2017-05-25 02:11:00,58.2,57.0,29.43,ESE,108,0.0,6.0,96,0.05,,,0.10,weatherlink.com 1.10,2017-05-25 06:11:00,
2017-05-25 02:26:00,58.2,57.0,29.42,ESE,108,1.0,6.0,96,0.02,,,0.10,weatherlink.com 1.10,2017-05-25 06:26:00,
2017-05-25 02:41:00,58.2,57.0,29.42,ESE,114,4.0,7.0,96,0.01,,,0.10,weatherlink.com 1.10,2017-05-25 06:41:00,
2017-05-25 02:56:00,58.2,57.0,29.41,SE,125,2.0,6.0,96,0.00,,,0.10,weatherlink.com 1.10,2017-05-25 06:56:00,
2017-05-25 03:11:00,58.2,57.0,29.41,East,84,1.0,10.0,96,0.00,,,0.10,weatherlink.com 1.10,2017-05-25 07:11:00,
2017-05-25 03:26:00,58.1,57.0,29.41,ESE,122,1.0,8.0,96,0.01,,,0.11,weatherlink.com 1.10,2017-05-25 07:26:00,
2017-05-25 03:41:00,58.1,57.0,29.41,ESE,113,1.0,10.0,96,0.01,,,0.11,weatherlink.com 1.10,2017-05-25 07:41:00,
2017-05-25 03:56:00,58.0,57.0,29.41,East,95,0.0,8.0,96,0.01,,,0.11,weatherlink.com 1.10,2017-05-25 07:56:00,
2017-05-25 04:11:00,57.9,57.0,29.40,ESE,107,6.0,7.0,96,0.01,,,0.11,weatherlink.com 1.10,2017-05-25 08:11:00,
2017-05-25 04:26:00,57.8,57.0,29.41,East,88,1.0,8.0,96,0.00,,,0.11,weatherlink.com 1.10,2017-05-25 08:26:00,
2017-05-25 04:41:00,57.8,57.0,29.41,East,94,3.0,7.0,96,0.01,,,0.12,weatherlink.com 1.10,2017-05-25 08:41:00,
2017-05-25 04:56:00,57.8,57.0,29.41,East,84,0.0,6.0,96,0.01,,,0.12,weatherlink.com 1.10,2017-05-25 08:56:00,
2017-05-25 05:11:00,57.9,57.0,29.41,ESE,119,2.0,4.0,96,0.02,,,0.13,weatherlink.com 1.10,2017-05-25 09:11:00,
2017-05-25 05:26:00,57.9,57.0,29.41,ESE,117,2.0,6.0,96,0.02,,,0.13,weatherlink.com 1.10,2017-05-25 09:26:00,
2017-05-25 05:41:00,58.0,57.0,29.41,NNE,28,2.0,8.0,96,0.01,,,0.13,weatherlink.com 1.10,2017-05-25 09:41:00,
2017-05-25 05:56:00,58.0,57.0,29.41,ENE,76,2.0,6.0,96,0.02,,,0.14,weatherlink.com 1.10,2017-05-25 09:56:00,
2017-05-25 06:11:00,58.0,57.0,29.41,NNE,29,3.0,9.0,96,0.01,,,0.14,weatherlink.com 1.10,2017-05-25 10:11:00,
2017-05-25 06:26:00,58.0,57.0,29.41,ENE,57,4.0,6.0,96,0.01,,,0.14,weatherlink.com 1.10,2017-05-25 10:26:00,
2017-05-25 06:41:00,57.9,57.0,29.42,ESE,118,4.0,7.0,96,0.02,,,0.15,weatherlink.com 1.10,2017-05-25 10:41:00,
2017-05-25 06:56:00,57.9,57.0,29.42,ENE,61,2.0,6.0,96,0.01,,,0.15,weatherlink.com 1.10,2017-05-25 10:56:00,
2017-05-25 07:11:00,57.8,57.0,29.42,ENE,69,2.0,6.0,97,0.01,,,0.15,weatherlink.com 1.10,2017-05-25 11:11:00,
2017-05-25 07:26:00,57.9,57.0,29.43,ENE,67,3.0,6.0,97,0.02,,,0.16,weatherlink.com 1.10,2017-05-25 11:26:00,
2017-05-25 07:41:00,57.8,57.0,29.42,ENE,69,2.0,8.0,97,0.03,,,0.18,weatherlink.com 1.10,2017-05-25 11:41:00,
2017-05-25 07:56:00,58.0,57.0,29.43,ENE,73,1.0,6.0,97,0.06,,,0.21,weatherlink.com 1.10,2017-05-25 11:56:00,
2017-05-25 08:11:00,58.0,57.0,29.43,NE,47,3.0,8.0,97,0.07,,,0.22,weatherlink.com 1.10,2017-05-25 12:11:00,
2017-05-25 08:26:00,58.1,57.0,29.43,ENE,63,0.0,5.0,97,0.05,,,0.22,weatherlink.com 1.10,2017-05-25 12:26:00,
2017-05-25 08:41:00,58.2,57.0,29.43,ENE,63,0.0,5.0,97,0.04,,,0.22,weatherlink.com 1.10,2017-05-25 12:41:00,
2017-05-25 08:56:00,58.3,58.0,29.44,ENE,63,0.0,5.0,97,0.01,,,0.22,weatherlink.com 1.10,2017-05-25 12:56:00,
2017-05-25 09:11:00,58.6,58.0,29.44,NE,49,0.0,9.0,97,0.00,,,0.22,weatherlink.com 1.10,2017-05-25 13:11:00,
2017-05-25 09:26:00,58.5,58.0,29.44,NNE,15,2.0,9.0,97,0.00,,,0.22,weatherlink.com 1.10,2017-05-25 13:26:00,
2017-05-25 09:41:00,58.8,58.0,29.44,NNE,30,0.0,6.0,97,0.00,,,0.22,weatherlink.com 1.10,2017-05-25 13:41:00,
2017-05-25 09:56:00,59.0,58.0,29.44,NE,50,2.0,6.0,97,0.00,,,0.22,weatherlink.com 1.10,2017-05-25 13:56:00,
2017-05-25 10:11:00,59.1,58.0,29.44,NE,49,2.0,10.0,96,0.00,,,0.22,weatherlink.com 1.10,2017-05-25 14:11:00,
2017-05-25 10:26:00,59.2,58.0,29.44,NE,50,3.0,6.0,96,0.00,,,0.22,weatherlink.com 1.10,2017-05-25 14:26:00,
2017-05-25 10:41:00,59.3,58.0,29.44,ENE,66,1.0,8.0,96,0.00,,,0.22,weatherlink.com 1.10,2017-05-25 14:41:00,
2017-05-25 10:56:00,59.3,58.0,29.44,NE,51,3.0,11.0,96,0.00,,,0.22,weatherlink.com 1.10,2017-05-25 14:56:00,
2017-05-25 11:11:00,59.9,59.0,29.44,NE,53,0.0,5.0,96,0.00,,,0.22,weatherlink.com 1.10,2017-05-25 15:11:00,
2017-05-25 11:26:00,59.9,59.0,29.44,NE,46,2.0,9.0,95,0.00,,,0.22,weatherlink.com 1.10,2017-05-25 15:26:00,
2017-05-25 11:41:00,60.5,59.0,29.44,ENE,59,0.0,5.0,94,0.00,,,0.22,weatherlink.com 1.10,2017-05-25 15:41:00,
2017-05-25 11:56:00,60.4,58.0,29.44,NE,42,6.0,10.0,93,0.00,,,0.22,weatherlink.com 1.10,2017-05-25 15:56:00,
2017-05-25 12:11:00,60.4,58.0,29.44,NE,42,0.0,10.0,93,0.00,,,0.22,weatherlink.com 1.10,2017-05-25 16:11:00,
2017-05-25 12:26:00,60.3,58.0,29.45,NE,38,3.0,9.0,93,0.00,,,0.22,weatherlink.com 1.10,2017-05-25 16:26:00,
2017-05-25 12:41:00,60.2,58.0,29.45,NNE,24,1.0,8.0,93,0.00,,,0.22,weatherlink.com 1.10,2017-05-25 16:41:00,
2017-05-25 12:56:00,59.9,58.0,29.45,NE,40,0.0,5.0,93,0.00,,,0.22,weatherlink.com 1.10,2017-05-25 16:56:00,
2017-05-25 13:11:00,60.5,59.0,29.46,NE,40,2.0,9.0,94,0.00,,,0.22,weatherlink.com 1.10,2017-05-25 17:11:00,
2017-05-25 13:27:00,61.0,59.0,29.46,NE,35,2.0,8.0,93,0.00,,,0.22,weatherlink.com 1.10,2017-05-25 17:27:00,
2017-05-25 13:41:00,60.7,58.0,29.46,NE,34,1.0,6.0,92,0.00,,,0.22,weatherlink.com 1.10,2017-05-25 17:41:00,
2017-05-25 13:56:00,60.5,58.0,29.46,North,355,3.0,5.0,92,0.00,,,0.22,weatherlink.com 1.10,2017-05-25 17:56:00,
2017-05-25 14:11:00,61.1,59.0,29.46,NE,43,0.0,7.0,92,0.00,,,0.22,weatherlink.com 1.10,2017-05-25 18:11:00,
2017-05-25 14:26:00,60.7,58.0,29.46,NW,309,3.0,9.0,91,0.00,,,0.22,weatherlink.com 1.10,2017-05-25 18:26:00,
2017-05-25 14:41:00,60.1,58.0,29.47,North,349,2.0,6.0,92,0.00,,,0.22,weatherlink.com 1.10,2017-05-25 18:41:00,
2017-05-25 14:56:00,61.2,59.0,29.46,NNE,26,0.0,8.0,93,0.00,,,0.22,weatherlink.com 1.10,2017-05-25 18:56:00,
2017-05-25 15:11:00,61.7,59.0,29.46,NE,53,4.0,12.0,90,0.00,,,0.22,weatherlink.com 1.10,2017-05-25 19:11:00,
2017-05-25 15:27:00,61.3,58.0,29.47,NE,52,2.0,11.0,89,0.00,,,0.22,weatherlink.com 1.10,2017-05-25 19:27:00,
2017-05-25 15:42:00,60.9,58.0,29.47,NE,44,1.0,10.0,90,0.00,,,0.22,weatherlink.com 1.10,2017-05-25 19:42:00,
2017-05-25 15:56:00,61.4,59.0,29.47,WNW,298,1.0,6.0,90,0.00,,,0.22,weatherlink.com 1.10,2017-05-25 19:56:00,
2017-05-25 16:12:00,60.9,58.0,29.47,WNW,293,1.0,5.0,91,0.00,,,0.22,weatherlink.com 1.10,2017-05-25 20:12:00,